SWR77G LSGG-LIRF
Flight info
| Callsign | SWR77G |
|---|---|
| Flight time | 0h 57m |
| Altitude | 39000 |
| Route | MEDAM DCT NITAM DCT MOGBO DCT ELB/N0429F380 DCT ELKAP |
| Aircraft | A333/H-SDE3GHIJ2J3J5M1RVWXY/LB2D1 |
Departure
| Time | 2026-02-17 13:15 |
|---|---|
| Airport | Geneva International Airport (LSGG) |
Arrival
| Time | 2026-02-17 14:13 |
|---|---|
| Airport | Rome–Fiumicino Leonardo da Vinci International Airport (LIRF) |
| Time | Latitude | Longitude | Altitude | Speed | Heading |
|---|---|---|---|---|---|
| 2026-02-17 13:01 | 46.23380 | 6.11042 | 1396 ft | 0 kts | 135° |
| 2026-02-17 13:07 | 46.23384 | 6.11035 | 1407 ft | 2 kts | 135° |
| 2026-02-17 13:07 | 46.23398 | 6.11015 | 1407 ft | 3 kts | 135° |
| 2026-02-17 13:07 | 46.23412 | 6.10995 | 1396 ft | 2 kts | 135° |
| 2026-02-17 13:08 | 46.23423 | 6.10980 | 1409 ft | 3 kts | 114° |
| 2026-02-17 13:08 | 46.23425 | 6.10957 | 1407 ft | 3 kts | 67° |
| 2026-02-17 13:08 | 46.23415 | 6.10933 | 1407 ft | 2 kts | 48° |
| 2026-02-17 13:08 | 46.23410 | 6.10925 | 1407 ft | 1 kts | 45° |
| 2026-02-17 13:10 | 46.23415 | 6.10931 | 1407 ft | 3 kts | 45° |
| 2026-02-17 13:10 | 46.23469 | 6.11010 | 1405 ft | 16 kts | 44° |
| 2026-02-17 13:10 | 46.23548 | 6.11131 | 1407 ft | 18 kts | 46° |
| 2026-02-17 13:11 | 46.23733 | 6.11098 | 1383 ft | 11 kts | 39° |
| 2026-02-17 13:11 | 46.23788 | 6.11203 | 1378 ft | 16 kts | 47° |
| 2026-02-17 13:11 | 46.23874 | 6.11329 | 1376 ft | 19 kts | 45° |
| 2026-02-17 13:11 | 46.23979 | 6.11483 | 1374 ft | 24 kts | 45° |
| 2026-02-17 13:12 | 46.24103 | 6.11664 | 1369 ft | 28 kts | 45° |
| 2026-02-17 13:12 | 46.24247 | 6.11873 | 1366 ft | 31 kts | 46° |
| 2026-02-17 13:12 | 46.24395 | 6.12096 | 1370 ft | 30 kts | 45° |
| 2026-02-17 13:12 | 46.24542 | 6.12313 | 1374 ft | 30 kts | 46° |
| 2026-02-17 13:13 | 46.24668 | 6.12495 | 1369 ft | 27 kts | 45° |
| 2026-02-17 13:13 | 46.24816 | 6.12676 | 1366 ft | 28 kts | 20° |
| 2026-02-17 13:13 | 46.24963 | 6.12734 | 1372 ft | 19 kts | 359° |
| 2026-02-17 13:13 | 46.25006 | 6.12658 | 1372 ft | 5 kts | 244° |
| 2026-02-17 13:14 | 46.24986 | 6.12628 | 1372 ft | 1 kts | 225° |
| 2026-02-17 13:14 | 46.24983 | 6.12625 | 1371 ft | 0 kts | 225° |
| 2026-02-17 13:15 | 46.24977 | 6.12616 | 1375 ft | 8 kts | 225° |
| 2026-02-17 13:15 | 46.24772 | 6.12316 | 1373 ft | 85 kts | 225° |
| 2026-02-17 13:15 | 46.24155 | 6.11410 | 1416 ft | 166 kts | 225° |
| 2026-02-17 13:15 | 46.23288 | 6.10017 | 2075 ft | 202 kts | 228° |
| 2026-02-17 13:16 | 46.22305 | 6.08509 | 3481 ft | 207 kts | 228° |
| 2026-02-17 13:16 | 46.21273 | 6.07014 | 4340 ft | 219 kts | 229° |
| 2026-02-17 13:16 | 46.20132 | 6.05354 | 4819 ft | 244 kts | 229° |
| 2026-02-17 13:16 | 46.18909 | 6.03570 | 5638 ft | 254 kts | 230° |
| 2026-02-17 13:17 | 46.17650 | 6.01736 | 6646 ft | 258 kts | 230° |
| 2026-02-17 13:17 | 46.16322 | 5.99946 | 7645 ft | 266 kts | 223° |
| 2026-02-17 13:17 | 46.14680 | 5.98633 | 8660 ft | 277 kts | 204° |
| 2026-02-17 13:17 | 46.12751 | 5.98328 | 9649 ft | 292 kts | 176° |
| 2026-02-17 13:18 | 46.10822 | 5.99418 | 10473 ft | 311 kts | 149° |
| 2026-02-17 13:18 | 46.09091 | 6.01503 | 10839 ft | 338 kts | 138° |
| 2026-02-17 13:18 | 46.07366 | 6.03934 | 11400 ft | 354 kts | 137° |
| 2026-02-17 13:19 | 46.03736 | 6.08999 | 12916 ft | 372 kts | 137° |
| 2026-02-17 13:19 | 46.01835 | 6.11596 | 13724 ft | 380 kts | 137° |
| 2026-02-17 13:19 | 45.99887 | 6.14236 | 14403 ft | 389 kts | 137° |
| 2026-02-17 13:19 | 45.97889 | 6.16932 | 15039 ft | 398 kts | 137° |
| 2026-02-17 13:20 | 45.95863 | 6.19658 | 15680 ft | 408 kts | 137° |
| 2026-02-17 13:20 | 45.93770 | 6.22470 | 16321 ft | 418 kts | 137° |
| 2026-02-17 13:20 | 45.91623 | 6.25348 | 16965 ft | 426 kts | 137° |
| 2026-02-17 13:20 | 45.89422 | 6.28264 | 17467 ft | 434 kts | 140° |
| 2026-02-17 13:21 | 45.87036 | 6.30996 | 18138 ft | 442 kts | 144° |
| 2026-02-17 13:21 | 45.84557 | 6.33648 | 18862 ft | 445 kts | 144° |
| 2026-02-17 13:21 | 45.82056 | 6.36292 | 19552 ft | 450 kts | 144° |
| 2026-02-17 13:21 | 45.79509 | 6.38986 | 20067 ft | 458 kts | 144° |
| 2026-02-17 13:22 | 45.76919 | 6.41725 | 20503 ft | 468 kts | 144° |
| 2026-02-17 13:22 | 45.74278 | 6.44519 | 21051 ft | 475 kts | 144° |
| 2026-02-17 13:22 | 45.71584 | 6.47360 | 21498 ft | 485 kts | 145° |
| 2026-02-17 13:23 | 45.66089 | 6.53151 | 22725 ft | 495 kts | 145° |
| 2026-02-17 13:23 | 45.63294 | 6.56096 | 23214 ft | 503 kts | 144° |
| 2026-02-17 13:23 | 45.60494 | 6.59047 | 23682 ft | 510 kts | 144° |
| 2026-02-17 13:23 | 45.57622 | 6.62072 | 24110 ft | 515 kts | 145° |
| 2026-02-17 13:24 | 45.54722 | 6.65122 | 24496 ft | 524 kts | 145° |
| 2026-02-17 13:24 | 45.51782 | 6.68205 | 24981 ft | 529 kts | 145° |
| 2026-02-17 13:24 | 45.48791 | 6.71337 | 25495 ft | 532 kts | 145° |
| 2026-02-17 13:24 | 45.45799 | 6.74460 | 25976 ft | 533 kts | 146° |
| 2026-02-17 13:25 | 45.42755 | 6.77556 | 26457 ft | 537 kts | 147° |
| 2026-02-17 13:25 | 45.39694 | 6.80628 | 26967 ft | 540 kts | 147° |
| 2026-02-17 13:25 | 45.37654 | 6.82672 | 27236 ft | 543 kts | 147° |
| 2026-02-17 13:25 | 45.34559 | 6.85769 | 27662 ft | 545 kts | 147° |
| 2026-02-17 13:26 | 45.30434 | 6.89891 | 28243 ft | 549 kts | 147° |
| 2026-02-17 13:26 | 45.27311 | 6.93063 | 28642 ft | 553 kts | 143° |
| 2026-02-17 13:26 | 45.24370 | 6.96592 | 29000 ft | 555 kts | 138° |
| 2026-02-17 13:27 | 45.19683 | 7.02827 | 30063 ft | 550 kts | 135° |
| 2026-02-17 13:27 | 45.16936 | 7.06639 | 30360 ft | 555 kts | 135° |
| 2026-02-17 13:27 | 45.14188 | 7.10482 | 30717 ft | 553 kts | 135° |
| 2026-02-17 13:27 | 45.11517 | 7.14297 | 31167 ft | 552 kts | 130° |
| 2026-02-17 13:28 | 45.09131 | 7.18561 | 31506 ft | 555 kts | 125° |
| 2026-02-17 13:28 | 45.06839 | 7.22975 | 31860 ft | 557 kts | 123° |
| 2026-02-17 13:28 | 45.04593 | 7.27442 | 32334 ft | 557 kts | 123° |
| 2026-02-17 13:28 | 45.02372 | 7.31928 | 32839 ft | 556 kts | 122° |
| 2026-02-17 13:29 | 45.00165 | 7.36403 | 33316 ft | 556 kts | 122° |
| 2026-02-17 13:29 | 44.97794 | 7.40745 | 33827 ft | 557 kts | 131° |
| 2026-02-17 13:29 | 44.95150 | 7.44764 | 34188 ft | 558 kts | 133° |
| 2026-02-17 13:29 | 44.92451 | 7.48682 | 34675 ft | 553 kts | 135° |
| 2026-02-17 13:30 | 44.89747 | 7.52492 | 35229 ft | 548 kts | 135° |
| 2026-02-17 13:30 | 44.87030 | 7.56267 | 35630 ft | 547 kts | 136° |
| 2026-02-17 13:30 | 44.84317 | 7.60017 | 35983 ft | 547 kts | 136° |
| 2026-02-17 13:31 | 44.78845 | 7.67581 | 36479 ft | 554 kts | 136° |
| 2026-02-17 13:31 | 44.76131 | 7.71340 | 36830 ft | 553 kts | 136° |
| 2026-02-17 13:31 | 44.73392 | 7.75134 | 37251 ft | 551 kts | 136° |
| 2026-02-17 13:31 | 44.70657 | 7.78922 | 37536 ft | 552 kts | 136° |
| 2026-02-17 13:32 | 44.65167 | 7.86510 | 37085 ft | 557 kts | 136° |
| 2026-02-17 13:32 | 44.62364 | 7.90375 | 36860 ft | 570 kts | 136° |
| 2026-02-17 13:32 | 44.59509 | 7.94300 | 36842 ft | 578 kts | 136° |
| 2026-02-17 13:33 | 44.53673 | 8.02303 | 36793 ft | 593 kts | 136° |
| 2026-02-17 13:33 | 44.47804 | 8.10331 | 36809 ft | 593 kts | 136° |
| 2026-02-17 13:34 | 44.41905 | 8.18382 | 36842 ft | 592 kts | 136° |
| 2026-02-17 13:35 | 44.33030 | 8.30461 | 36849 ft | 592 kts | 136° |
| 2026-02-17 13:35 | 44.27113 | 8.38478 | 36855 ft | 593 kts | 136° |
| 2026-02-17 13:36 | 44.21172 | 8.46506 | 36849 ft | 594 kts | 136° |
| 2026-02-17 13:36 | 44.15258 | 8.54476 | 36847 ft | 594 kts | 136° |
| 2026-02-17 13:37 | 44.09307 | 8.62470 | 36866 ft | 594 kts | 136° |
| 2026-02-17 13:37 | 44.03336 | 8.70469 | 36850 ft | 598 kts | 136° |
| 2026-02-17 13:38 | 43.97335 | 8.78484 | 36848 ft | 600 kts | 136° |
| 2026-02-17 13:38 | 43.91304 | 8.86516 | 36856 ft | 600 kts | 136° |
| 2026-02-17 13:39 | 43.82283 | 8.98483 | 36862 ft | 601 kts | 136° |
| 2026-02-17 13:39 | 43.76226 | 9.06488 | 36860 ft | 601 kts | 136° |
| 2026-02-17 13:40 | 43.70171 | 9.14468 | 36869 ft | 602 kts | 136° |
| 2026-02-17 13:40 | 43.64098 | 9.22449 | 36860 ft | 603 kts | 136° |
| 2026-02-17 13:41 | 43.58044 | 9.30382 | 36864 ft | 604 kts | 136° |
| 2026-02-17 13:41 | 43.51941 | 9.38354 | 36869 ft | 604 kts | 136° |
| 2026-02-17 13:42 | 43.45831 | 9.46312 | 36930 ft | 604 kts | 136° |
| 2026-02-17 13:43 | 43.36632 | 9.58252 | 36868 ft | 607 kts | 136° |
| 2026-02-17 13:43 | 43.30476 | 9.66213 | 36867 ft | 608 kts | 136° |
| 2026-02-17 13:44 | 43.24300 | 9.74175 | 36868 ft | 608 kts | 136° |
| 2026-02-17 13:44 | 43.18166 | 9.82059 | 36865 ft | 608 kts | 136° |
| 2026-02-17 13:45 | 43.11978 | 9.89992 | 36864 ft | 609 kts | 136° |
| 2026-02-17 13:45 | 43.05775 | 9.97920 | 36867 ft | 609 kts | 136° |
| 2026-02-17 13:46 | 43.00211 | 10.06561 | 36865 ft | 603 kts | 121° |
| 2026-02-17 13:46 | 42.95677 | 10.16165 | 36857 ft | 600 kts | 118° |
| 2026-02-17 13:47 | 42.89099 | 10.30643 | 36853 ft | 601 kts | 117° |
| 2026-02-17 13:47 | 42.84686 | 10.40326 | 36858 ft | 602 kts | 118° |
| 2026-02-17 13:48 | 42.80257 | 10.50012 | 36850 ft | 602 kts | 118° |
| 2026-02-17 13:48 | 42.75818 | 10.59682 | 36862 ft | 602 kts | 118° |
| 2026-02-17 13:49 | 42.71376 | 10.69326 | 36377 ft | 599 kts | 118° |
| 2026-02-17 13:49 | 42.69151 | 10.74145 | 35542 ft | 602 kts | 117° |
| 2026-02-17 13:49 | 42.66951 | 10.78902 | 34808 ft | 602 kts | 117° |
| 2026-02-17 13:50 | 42.64719 | 10.83718 | 34193 ft | 600 kts | 117° |
| 2026-02-17 13:50 | 42.62498 | 10.88500 | 33627 ft | 596 kts | 116° |
| 2026-02-17 13:50 | 42.60292 | 10.93244 | 33047 ft | 591 kts | 116° |
| 2026-02-17 13:51 | 42.55937 | 11.02590 | 31923 ft | 581 kts | 116° |
| 2026-02-17 13:51 | 42.53780 | 11.07210 | 31354 ft | 576 kts | 116° |
| 2026-02-17 13:51 | 42.51672 | 11.11719 | 30826 ft | 572 kts | 115° |
| 2026-02-17 13:51 | 42.49524 | 11.16307 | 30287 ft | 567 kts | 115° |
| 2026-02-17 13:52 | 42.47445 | 11.20742 | 29744 ft | 563 kts | 115° |
| 2026-02-17 13:52 | 42.45347 | 11.25209 | 29125 ft | 558 kts | 115° |
| 2026-02-17 13:52 | 42.43273 | 11.29622 | 28542 ft | 553 kts | 115° |
| 2026-02-17 13:52 | 42.41212 | 11.33997 | 27966 ft | 550 kts | 115° |
| 2026-02-17 13:53 | 42.39161 | 11.38349 | 27370 ft | 546 kts | 115° |
| 2026-02-17 13:53 | 42.37124 | 11.42662 | 26837 ft | 541 kts | 115° |
| 2026-02-17 13:53 | 42.35098 | 11.46944 | 26254 ft | 537 kts | 116° |
| 2026-02-17 13:53 | 42.33089 | 11.51188 | 25726 ft | 533 kts | 116° |
| 2026-02-17 13:54 | 42.31096 | 11.55389 | 25193 ft | 529 kts | 116° |
| 2026-02-17 13:54 | 42.29116 | 11.59558 | 24675 ft | 526 kts | 116° |
| 2026-02-17 13:54 | 42.27146 | 11.63700 | 24156 ft | 522 kts | 116° |
| 2026-02-17 13:55 | 42.23049 | 11.71744 | 23142 ft | 523 kts | 129° |
| 2026-02-17 13:55 | 42.20602 | 11.75252 | 22667 ft | 516 kts | 130° |
| 2026-02-17 13:55 | 42.18134 | 11.78705 | 22279 ft | 508 kts | 132° |
| 2026-02-17 13:55 | 42.15672 | 11.82085 | 21852 ft | 500 kts | 132° |
| 2026-02-17 13:56 | 42.13243 | 11.85401 | 21447 ft | 492 kts | 132° |
| 2026-02-17 13:56 | 42.10854 | 11.88653 | 20976 ft | 485 kts | 132° |
| 2026-02-17 13:56 | 42.08491 | 11.91862 | 20553 ft | 478 kts | 133° |
| 2026-02-17 13:56 | 42.06172 | 11.95006 | 20186 ft | 469 kts | 133° |
| 2026-02-17 13:57 | 42.03890 | 11.98096 | 19777 ft | 462 kts | 133° |
| 2026-02-17 13:57 | 42.01636 | 12.01144 | 19332 ft | 455 kts | 133° |
| 2026-02-17 13:57 | 41.99425 | 12.04131 | 18944 ft | 447 kts | 133° |
| 2026-02-17 13:57 | 41.97256 | 12.07058 | 18584 ft | 438 kts | 133° |
| 2026-02-17 13:58 | 41.95118 | 12.09941 | 18151 ft | 432 kts | 133° |
| 2026-02-17 13:58 | 41.93016 | 12.12774 | 17683 ft | 426 kts | 133° |
| 2026-02-17 13:58 | 41.90939 | 12.15569 | 17112 ft | 421 kts | 133° |
| 2026-02-17 13:59 | 41.86841 | 12.21077 | 16077 ft | 412 kts | 133° |
| 2026-02-17 13:59 | 41.84827 | 12.23780 | 15548 ft | 407 kts | 133° |
| 2026-02-17 13:59 | 41.82864 | 12.26413 | 15040 ft | 402 kts | 134° |
| 2026-02-17 13:59 | 41.80898 | 12.29047 | 14535 ft | 397 kts | 134° |
| 2026-02-17 14:00 | 41.78955 | 12.31646 | 14029 ft | 392 kts | 134° |
| 2026-02-17 14:00 | 41.77035 | 12.34214 | 13522 ft | 388 kts | 134° |
| 2026-02-17 14:00 | 41.75132 | 12.36756 | 12979 ft | 383 kts | 134° |
| 2026-02-17 14:00 | 41.73260 | 12.39253 | 12431 ft | 378 kts | 134° |
| 2026-02-17 14:01 | 41.71423 | 12.41703 | 12167 ft | 366 kts | 134° |
| 2026-02-17 14:01 | 41.69665 | 12.44044 | 11911 ft | 345 kts | 134° |
| 2026-02-17 14:01 | 41.67999 | 12.46214 | 11633 ft | 324 kts | 139° |
| 2026-02-17 14:01 | 41.66123 | 12.47735 | 11201 ft | 311 kts | 160° |
| 2026-02-17 14:02 | 41.64130 | 12.48653 | 10950 ft | 293 kts | 165° |
| 2026-02-17 14:02 | 41.62256 | 12.49420 | 10704 ft | 279 kts | 165° |
| 2026-02-17 14:02 | 41.60414 | 12.50162 | 10304 ft | 273 kts | 165° |
| 2026-02-17 14:03 | 41.56836 | 12.51610 | 9434 ft | 265 kts | 165° |
| 2026-02-17 14:03 | 41.55077 | 12.52317 | 8926 ft | 263 kts | 167° |
| 2026-02-17 14:03 | 41.53280 | 12.52541 | 8411 ft | 258 kts | 190° |
| 2026-02-17 14:03 | 41.51618 | 12.51811 | 7819 ft | 250 kts | 219° |
| 2026-02-17 14:04 | 41.50521 | 12.50104 | 7080 ft | 242 kts | 251° |
| 2026-02-17 14:04 | 41.49924 | 12.47999 | 6341 ft | 244 kts | 259° |
| 2026-02-17 14:04 | 41.49432 | 12.45813 | 5591 ft | 247 kts | 261° |
| 2026-02-17 14:04 | 41.49177 | 12.43573 | 4866 ft | 241 kts | 282° |
| 2026-02-17 14:05 | 41.49795 | 12.41638 | 4550 ft | 218 kts | 311° |
| 2026-02-17 14:05 | 41.50917 | 12.40464 | 4472 ft | 199 kts | 332° |
| 2026-02-17 14:05 | 41.52151 | 12.39709 | 4473 ft | 198 kts | 339° |
| 2026-02-17 14:05 | 41.53461 | 12.39108 | 4484 ft | 200 kts | 343° |
| 2026-02-17 14:06 | 41.54803 | 12.38560 | 4491 ft | 202 kts | 343° |
| 2026-02-17 14:06 | 41.56149 | 12.38006 | 4489 ft | 202 kts | 342° |
| 2026-02-17 14:06 | 41.57490 | 12.37446 | 4486 ft | 202 kts | 342° |
| 2026-02-17 14:07 | 41.60165 | 12.36334 | 4414 ft | 201 kts | 342° |
| 2026-02-17 14:07 | 41.61503 | 12.35778 | 4203 ft | 201 kts | 342° |
| 2026-02-17 14:07 | 41.62842 | 12.35222 | 3887 ft | 202 kts | 342° |
| 2026-02-17 14:07 | 41.64193 | 12.34662 | 3571 ft | 204 kts | 342° |
| 2026-02-17 14:08 | 41.65541 | 12.34102 | 3286 ft | 201 kts | 342° |
| 2026-02-17 14:08 | 41.66861 | 12.33553 | 3001 ft | 196 kts | 342° |
| 2026-02-17 14:08 | 41.68135 | 12.33023 | 2749 ft | 193 kts | 342° |
| 2026-02-17 14:08 | 41.69383 | 12.32504 | 2488 ft | 179 kts | 341° |
| 2026-02-17 14:09 | 41.70516 | 12.32032 | 2252 ft | 164 kts | 341° |
| 2026-02-17 14:09 | 41.71565 | 12.31593 | 2045 ft | 153 kts | 341° |
| 2026-02-17 14:09 | 41.72542 | 12.31187 | 1829 ft | 139 kts | 340° |
| 2026-02-17 14:09 | 41.73408 | 12.30826 | 1650 ft | 123 kts | 339° |
| 2026-02-17 14:10 | 41.74191 | 12.30497 | 1472 ft | 114 kts | 338° |
| 2026-02-17 14:10 | 41.74933 | 12.30187 | 1342 ft | 111 kts | 340° |
| 2026-02-17 14:10 | 41.75666 | 12.29882 | 1192 ft | 111 kts | 340° |
| 2026-02-17 14:11 | 41.77152 | 12.29262 | 893 ft | 112 kts | 338° |
| 2026-02-17 14:11 | 41.77898 | 12.28951 | 741 ft | 112 kts | 337° |
| 2026-02-17 14:11 | 41.78641 | 12.28641 | 614 ft | 112 kts | 336° |
| 2026-02-17 14:11 | 41.79390 | 12.28328 | 454 ft | 115 kts | 336° |
| 2026-02-17 14:12 | 41.80154 | 12.28009 | 309 ft | 115 kts | 337° |
| 2026-02-17 14:12 | 41.80922 | 12.27700 | 143 ft | 115 kts | 338° |
| 2026-02-17 14:12 | 41.81668 | 12.27381 | 25 ft | 110 kts | 338° |
| 2026-02-17 14:12 | 41.82245 | 12.27138 | 16 ft | 61 kts | 342° |
| 2026-02-17 14:13 | 41.82579 | 12.26948 | 18 ft | 38 kts | 318° |
| 2026-02-17 14:13 | 41.82726 | 12.26735 | 19 ft | 30 kts | 306° |
| 2026-02-17 14:13 | 41.82697 | 12.26625 | 19 ft | 11 kts | 183° |
| 2026-02-17 14:13 | 41.82617 | 12.26657 | 19 ft | 13 kts | 162° |
| 2026-02-17 14:14 | 41.82519 | 12.26698 | 19 ft | 16 kts | 162° |
| 2026-02-17 14:14 | 41.82402 | 12.26748 | 21 ft | 19 kts | 162° |
| 2026-02-17 14:14 | 41.82267 | 12.26803 | 20 ft | 21 kts | 163° |